Portada
METAR-TAF:

METAR-TAF

Aeroports :

Djibouti, Djibouti

latitud: 11-33N, longitud: 043-10E, altitud: 49 m

Observació

L'informe es va fer fa 55 minuts, a les 08:00 UTC
Vent 8 kt del Oest/Nord-Oest
Temperatura 43°C
Humitat 15%
Pressió 1004 hPa
Visibilitat: 8000 m
Núvols disperses a una alçada de 13300 ft
calitja

METAR: HDAM 160800Z 30008KT 8000 HZ SCT133 43/11 Q1004

Hora: 11:55 (08:55 UTC)

Pronòstic

L'informe es va fer fa 3 hores i 55 minuts, a les 05:00 UTC
Pronòstic vàlid del 16 a les 06 UTC al 17 a les 06 UTC
Vent 10 kt del Oest
Visibilitat: 8000 m
calitja
Evolucionant progressivament
l' 16 a les 12 UTC al 16 a les 15 UTC
Escasses núvols a una alçada de 3000 ft, Cumulonimbus.
Evolucionant progressivament
l' 16 a les 15 UTC al 17 a les 06 UTC
Vent 3 kt amb direcció variable

TAF: HDAM 160500Z 1606/1706 28010KT 8000 HZ NSC BECMG 1612/1615 FEW030CB BECMG 1615/1706 VRB03KT

Observacions i pronòstics meteorològics de més de 4000 aeroports (METAR i TAF).

Les estacions disponibles són els punts grocs i vermells al mapa.

Posi el ratolí al punt desitjat per veure el nom de l'estació.

Feu clic per veure les observacions i els pronòstics meteorològics.

Per canviar el mapa: feu clic els botons verds amb una creu de color negre per apropar; al botó verd amb un guió per allunyar la imatge; o en les fletxes verdes per a mapes adjacents.


METAR-TAF: